Kyrakatingo — 9HA4470 — position and weather

sailwx.info

Track history (hours):
 
Tides and Currents Weather Stations Pressure Air Temp Water Temp Dewpoint Dewpoint Depression Visibility Wind Speed Wind Dir Waves Ship Positions

Kyrakatingo

Last reported at 2017-Dec-18 02:46 UTC. Time now 2017-Dec-18 03:23 UTC.
Position N 51°22' E 002°40'.

Length 250 m; draft 8.7 m.

Type: Tanker. MMSI: 249997000.

Date/timePositionNaut miles runAvg speedWind from/ knotsBaromVisibWave heightAir tempDewpointWater temp
2017-Dec-18 02:46N 51°22' E 002°40'2 5.4
2017-Dec-18 02:29N 51°22' E 002°38'3 4.2
2017-Dec-18 01:47N 51°21' E 002°34'1 2.1
2017-Dec-18 01:27N 51°20' E 002°34'0 0.1
2017-Dec-18 00:57N 51°20' E 002°34'0 0.0
2017-Dec-18 00:27N 51°20' E 002°34'0 0.1
2017-Dec-18 00:00N 51°20' E 002°34'0 0.0
2017-Dec-17 23:18N 51°20' E 002°34'0 0.0
2017-Dec-17 23:00N 51°20' E 002°34'0 0.0
2017-Dec-17 22:30N 51°20' E 002°34'0 0.0
2017-Dec-17 21:54N 51°20' E 002°34'0 0.2
2017-Dec-17 21:21N 51°20' E 002°34'0 0.3
2017-Dec-17 20:57N 51°20' E 002°33'0 0.1
2017-Dec-17 20:30N 51°20' E 002°33'0 0.0
2017-Dec-17 19:15N 51°20' E 002°33'0 0.0
2017-Dec-17 18:39N 51°20' E 002°33'0 0.0
2017-Dec-17 17:42N 51°20' E 002°33'0 0.1
2017-Dec-17 17:24N 51°20' E 002°33'0 0.1
2017-Dec-17 17:00N 51°20' E 002°33'0 0.1
2017-Dec-17 16:30N 51°20' E 002°34'0 0.0
2017-Dec-17 16:00N 51°20' E 002°34'0 0.0
2017-Dec-17 15:30N 51°20' E 002°34'0 0.0
2017-Dec-17 15:00N 51°20' E 002°34'0 0.0
2017-Dec-17 14:21N 51°20' E 002°34'0 0.0
2017-Dec-17 12:12N 51°20' E 002°34'0 0.0
2017-Dec-17 11:48N 51°20' E 002°34'0 0.1
2017-Dec-17 11:24N 51°20' E 002°34'0 0.1
2017-Dec-17 11:00N 51°20' E 002°34'0 0.1
2017-Dec-17 10:27N 51°20' E 002°34'0 0.1
2017-Dec-17 09:51N 51°20' E 002°34'0 0.6
2017-Dec-17 09:28N 51°20' E 002°33'1 2.2
2017-Dec-17 08:57N 51°21' E 002°33'5 6.4
2017-Dec-17 08:11N 51°21' E 002°25'2 8.8
2017-Dec-17 07:58N 51°20' E 002°23'4 9.4
2017-Dec-17 07:30N 51°19' E 002°16'510.1
2017-Dec-17 07:00N 51°20' E 002°08'5 9.9
2017-Dec-17 06:30N 51°22' E 002°01'4 8.6
2017-Dec-17 06:00N 51°26' E 001°57'510.4
2017-Dec-17 05:31N 51°29' E 002°03'5 9.1
2017-Dec-17 05:01N 51°33' E 002°08'5 9.9
2017-Dec-17 04:31N 51°36' E 002°14'5 9.4
2017-Dec-17 04:00N 51°40' E 002°19'160 9.4
2017-Dec-16 10:58N 54°01' E 004°21'4 8.3
2017-Dec-16 10:29N 54°04' E 004°26'4 8.2
2017-Dec-16 09:59N 54°08' E 004°30'4 8.2
2017-Dec-16 09:29N 54°11' E 004°34'29310.3
2017-Dec-15 04:58N 57°50' E 010°22'611.9
2017-Dec-15 04:26N 57°50' E 010°34'511.4
2017-Dec-15 04:00N 57°50' E 010°44'8 5.6
2017-Dec-15 02:30N 57°41' E 010°42'0 0.0
2017-Dec-15 01:00N 57°41' E 010°42'0 0.0
2017-Dec-15 00:30N 57°41' E 010°42'0 0.0
2017-Dec-14 18:30N 57°42' E 010°42'0 0.0
2017-Dec-14 17:57N 57°42' E 010°42'0 0.0
2017-Dec-14 17:30N 57°41' E 010°42'0 0.0
2017-Dec-14 17:00N 57°42' E 010°42'0 0.1
2017-Dec-14 16:30N 57°42' E 010°42'0 0.1
2017-Dec-14 16:00N 57°41' E 010°42'0 0.1
2017-Dec-14 15:00N 57°41' E 010°42'0 0.0
2017-Dec-14 14:30N 57°41' E 010°42'0 0.0
2017-Dec-14 14:00N 57°41' E 010°42'0 0.1
2017-Dec-14 13:30N 57°41' E 010°42'0 0.1
2017-Dec-14 12:57N 57°41' E 010°42'0 0.0
2017-Dec-14 12:30N 57°41' E 010°42'0 0.1
2017-Dec-14 11:54N 57°42' E 010°42'0 0.0
2017-Dec-14 11:30N 57°42' E 010°42'0 0.1
2017-Dec-14 11:00N 57°42' E 010°42'0 0.0
2017-Dec-14 10:27N 57°42' E 010°42'0 0.0
2017-Dec-14 10:00N 57°42' E 010°42'0 0.0
2017-Dec-14 09:24N 57°42' E 010°42'0 0.0
2017-Dec-14 08:51N 57°42' E 010°42'0 0.0
2017-Dec-14 08:24N 57°42' E 010°42'0 0.0
2017-Dec-14 08:00N 57°42' E 010°42'0 0.0
2017-Dec-14 07:24N 57°42' E 010°42'0 0.0
2017-Dec-14 07:00N 57°42' E 010°42'0 0.0
2017-Dec-14 06:27N 57°42' E 010°42'0 0.0
2017-Dec-14 05:57N 57°42' E 010°42'0 0.0
2017-Dec-14 05:30N 57°42' E 010°42'0 0.0
2017-Dec-14 04:54N 57°42' E 010°42'0 0.0
2017-Dec-14 04:30N 57°42' E 010°42'0 0.0
2017-Dec-14 04:00N 57°42' E 010°42'0 0.0
2017-Dec-14 03:24N 57°42' E 010°42'0 0.0
2017-Dec-14 03:00N 57°42' E 010°42'0 0.1
2017-Dec-14 02:30N 57°42' E 010°42'0 0.0
2017-Dec-14 02:00N 57°42' E 010°42'0 0.1
2017-Dec-14 01:30N 57°42' E 010°42'0 0.0
2017-Dec-14 01:00N 57°42' E 010°42'0 0.1
2017-Dec-14 00:27N 57°42' E 010°42'0 0.0
2017-Dec-13 23:57N 57°42' E 010°42'0 0.1
2017-Dec-13 23:21N 57°42' E 010°42'0 0.0
2017-Dec-13 22:57N 57°42' E 010°42'0 0.1
2017-Dec-13 22:27N 57°42' E 010°42'0 0.1
2017-Dec-13 21:54N 57°42' E 010°42'0 0.0
2017-Dec-13 21:30N 57°42' E 010°42'0 0.1
2017-Dec-13 20:57N 57°42' E 010°42'0 0.1
2017-Dec-13 20:30N 57°42' E 010°42'0 0.1
2017-Dec-13 19:57N 57°42' E 010°42'0 0.1
2017-Dec-13 19:30N 57°42' E 010°42'0 0.0
2017-Dec-13 18:57N 57°42' E 010°42'0 0.0
2017-Dec-13 18:27N 57°42' E 010°42'0 0.1
2017-Dec-13 18:00N 57°42' E 010°42'0 0.1
2017-Dec-13 17:30N 57°42' E 010°42'0 0.1
2017-Dec-13 17:00N 57°42' E 010°42'0 0.1
2017-Dec-13 16:30N 57°42' E 010°42'0 0.0
2017-Dec-13 15:54N 57°42' E 010°43'0 0.2
2017-Dec-13 15:30N 57°42' E 010°42'0 0.0
2017-Dec-13 14:54N 57°42' E 010°42'0 0.2
2017-Dec-13 14:30N 57°42' E 010°43'0 0.0
2017-Dec-13 14:00N 57°42' E 010°43'0 0.1
2017-Dec-13 13:24N 57°42' E 010°42'0 0.1
2017-Dec-13 12:57N 57°42' E 010°43'0 0.2
2017-Dec-13 12:30N 57°42' E 010°42'0 0.0
2017-Dec-13 12:00N 57°42' E 010°42'0 0.0
2017-Dec-13 11:30N 57°42' E 010°42'0 0.0
2017-Dec-13 11:00N 57°42' E 010°42'0 0.1
2017-Dec-13 10:30N 57°42' E 010°42'0 0.1
2017-Dec-13 10:00N 57°41' E 010°43'0 0.0
2017-Dec-13 09:21N 57°41' E 010°42'0 0.1
2017-Dec-13 09:00N 57°41' E 010°42'0 0.1
2017-Dec-13 08:30N 57°41' E 010°43'0 0.1
2017-Dec-13 08:00N 57°41' E 010°42'0 0.1
2017-Dec-13 07:30N 57°41' E 010°42'0 0.0
2017-Dec-13 07:00N 57°41' E 010°42'0 0.1
2017-Dec-13 06:30N 57°41' E 010°43'0 0.0
2017-Dec-13 05:57N 57°41' E 010°43'0 0.0
2017-Dec-13 05:30N 57°41' E 010°43'0 0.0
2017-Dec-13 05:00N 57°41' E 010°43'0 0.1
2017-Dec-13 04:30N 57°41' E 010°43'0 0.0
2017-Dec-13 04:00N 57°41' E 010°43'0 0.0
2017-Dec-13 03:30N 57°41' E 010°43'0 0.0
2017-Dec-13 03:00N 57°41' E 010°43'0 0.0
2017-Dec-13 02:30N 57°41' E 010°43'0 0.0
2017-Dec-13 02:00N 57°41' E 010°43'0 0.0
2017-Dec-13 01:30N 57°41' E 010°43'0 0.1
2017-Dec-13 00:57N 57°41' E 010°43'0 0.1
2017-Dec-13 00:30N 57°41' E 010°43'0 0.0
2017-Dec-12 23:57N 57°41' E 010°43'0 0.0
2017-Dec-12 23:30N 57°41' E 010°43'0 0.0
2017-Dec-12 22:59N 57°41' E 010°43'0 0.1
2017-Dec-12 22:30N 57°41' E 010°43'0 0.0
2017-Dec-12 22:00N 57°41' E 010°43'0 0.0
2017-Dec-12 21:30N 57°41' E 010°43'0 0.0
2017-Dec-12 21:00N 57°41' E 010°43'0 0.0
2017-Dec-12 20:30N 57°41' E 010°43'0 0.1
2017-Dec-12 20:00N 57°41' E 010°43'0 0.0
2017-Dec-12 19:30N 57°41' E 010°43'0 0.0
2017-Dec-12 19:00N 57°41' E 010°43'0 0.1
2017-Dec-12 18:15N 57°41' E 010°43'0 0.1
2017-Dec-12 17:54N 57°41' E 010°43'0 0.0
2017-Dec-12 17:26N 57°41' E 010°43'0 0.1
2017-Dec-12 17:00N 57°41' E 010°43'0 0.1
2017-Dec-12 16:30N 57°41' E 010°43'0 0.0
2017-Dec-12 15:57N 57°41' E 010°43'0 0.0
2017-Dec-12 15:30N 57°41' E 010°43'0 0.0
2017-Dec-12 15:00N 57°41' E 010°43'0 0.0
2017-Dec-12 14:29N 57°41' E 010°43'0 0.1
2017-Dec-12 14:00N 57°41' E 010°42'0 0.0
2017-Dec-12 13:30N 57°41' E 010°42'0 0.0
2017-Dec-12 12:59N 57°41' E 010°42'0 0.1
2017-Dec-12 12:27N 57°41' E 010°42'0 0.1
2017-Dec-12 11:57N 57°41' E 010°42'0 0.1
2017-Dec-12 11:23N 57°41' E 010°42'0 0.2
2017-Dec-12 10:56N 57°41' E 010°42'0 0.2
2017-Dec-12 10:27N 57°41' E 010°42'0 0.0
2017-Dec-12 09:50N 57°41' E 010°42'0 0.0
2017-Dec-12 09:30N 57°41' E 010°42'0 0.1
2017-Dec-12 08:59N 57°41' E 010°42'0 0.1
2017-Dec-12 08:26N 57°41' E 010°42'0 0.0
2017-Dec-12 07:56N 57°41' E 010°42'0 0.1
2017-Dec-12 07:29N 57°41' E 010°42'0 0.1
2017-Dec-12 06:59N 57°41' E 010°42'0 0.1
2017-Dec-12 06:29N 57°41' E 010°42'0 0.1
2017-Dec-12 05:51N 57°41' E 010°42'0 0.1
2017-Dec-12 05:24N 57°41' E 010°42'0 0.1
2017-Dec-12 05:00N 57°41' E 010°42'0 0.1
2017-Dec-12 04:30N 57°41' E 010°42'0 0.6
2017-Dec-12 04:00N 57°41' E 010°42'1 1.1
2017-Dec-12 03:30N 57°41' E 010°43'1 2.7
2017-Dec-12 03:00N 57°41' E 010°45'2 4.6
2017-Dec-12 02:30N 57°40' E 010°49'3 5.6
2017-Dec-12 02:00N 57°40' E 010°54'611.7
2017-Dec-12 01:30N 57°38' E 011°05'612.9
2017-Dec-12 01:00N 57°34' E 011°14'613.1
2017-Dec-12 00:30N 57°30' E 011°23'612.2
2017-Dec-12 00:00N 57°25' E 011°29'612.6
2017-Dec-11 23:30N 57°18' E 011°32'713.0
2017-Dec-11 23:00N 57°12' E 011°36'713.3
2017-Dec-11 22:30N 57°06' E 011°40'713.3
2017-Dec-11 22:00N 56°60' E 011°44'10211.9
2017-Dec-11 13:27N 55°20' E 011°02'613.6
2017-Dec-11 13:00N 55°15' E 011°06'712.9
2017-Dec-11 12:30N 55°08' E 011°03'713.8
2017-Dec-11 12:00N 55°02' E 011°02'713.2
2017-Dec-11 11:30N 54°56' E 010°56'713.3
2017-Dec-11 11:00N 54°50' E 010°52'612.8
2017-Dec-11 10:30N 54°43' E 010°53'612.4
2017-Dec-11 10:00N 54°39' E 011°01'713.8
2017-Dec-11 09:31N 54°36' E 011°11'714.0
2017-Dec-11 09:00N 54°33' E 011°22'714.2
2017-Dec-11 08:30N 54°30' E 011°33'713.8
2017-Dec-11 08:00N 54°27' E 011°44'714.0
2017-Dec-11 07:30N 54°26' E 011°56'713.8
2017-Dec-11 06:59N 54°26' E 012°08'612.8
2017-Dec-11 06:30N 54°31' E 012°13'612.7
2017-Dec-11 06:00N 54°38' E 012°17'8111.5
2017-Dec-10 22:56N 54°39' E 014°37'912.8
2017-Dec-10 22:15N 54°40' E 014°52'312.7
2017-Dec-10 22:00N 54°40' E 014°57'10812.4
2017-Dec-10 13:17N 55°00' E 018°02'311.8
2017-Dec-10 13:00N 55°00' E 018°07'611.7
2017-Dec-10 12:30N 55°00' E 018°18'611.6
2017-Dec-10 12:00N 55°00' E 018°28'611.2
2017-Dec-10 11:30N 54°59' E 018°37'612.8
2017-Dec-10 11:01N 54°54' E 018°45'612.9
2017-Dec-10 10:30N 54°50' E 018°53'612.2
2017-Dec-10 10:01N 54°45' E 019°00'713.0
2017-Dec-10 09:30N 54°39' E 018°57'713.0
2017-Dec-10 09:00N 54°34' E 018°51'612.7
2017-Dec-10 08:30N 54°29' E 018°44'4 8.9
2017-Dec-10 08:00N 54°25' E 018°39'2 3.5
2017-Dec-10 07:30N 54°24' E 018°41'1 2.9
2017-Dec-10 07:00N 54°23' E 018°39'0 0.6
2017-Dec-10 06:30N 54°23' E 018°40'0 0.0
2017-Dec-10 06:00N 54°23' E 018°40'0 0.0
2017-Dec-10 05:30N 54°23' E 018°40'0 0.0
2017-Dec-10 05:00N 54°23' E 018°40'0 0.0
2017-Dec-10 04:30N 54°23' E 018°40'0 0.0
2017-Dec-10 04:00N 54°23' E 018°40'0 0.0
2017-Dec-10 03:30N 54°23' E 018°40'0 0.0
2017-Dec-10 03:00N 54°23' E 018°40'0 0.0
2017-Dec-10 02:30N 54°23' E 018°40'0 0.0
2017-Dec-10 01:57N 54°23' E 018°40'0 0.0
2017-Dec-10 01:30N 54°23' E 018°40'0 0.0
2017-Dec-10 01:00N 54°23' E 018°40'0 0.0
2017-Dec-10 00:30N 54°23' E 018°40'0 0.0
2017-Dec-10 00:00N 54°23' E 018°40'0 0.0
2017-Dec-09 23:30N 54°23' E 018°40'0 0.0
2017-Dec-09 23:00N 54°23' E 018°40'0 0.0
2017-Dec-09 22:30N 54°23' E 018°40'0 0.0
2017-Dec-09 22:00N 54°23' E 018°40'0 0.0
2017-Dec-09 21:30N 54°23' E 018°40'0 0.0
2017-Dec-09 21:00N 54°23' E 018°40'0 0.0
2017-Dec-09 20:30N 54°23' E 018°40'0 0.0
2017-Dec-09 20:00N 54°23' E 018°40'0 0.0
2017-Dec-09 19:30N 54°23' E 018°40'0 0.0
2017-Dec-09 19:00N 54°23' E 018°40'0 0.0
2017-Dec-09 18:27N 54°23' E 018°40'0 0.0
2017-Dec-09 18:00N 54°23' E 018°40'0 0.0
2017-Dec-09 17:27N 54°23' E 018°40'0 0.0
2017-Dec-09 16:57N 54°23' E 018°40'0 0.0
2017-Dec-09 16:27N 54°23' E 018°40'0 0.0
2017-Dec-09 15:51N 54°23' E 018°40'0 0.0
2017-Dec-09 15:27N 54°23' E 018°40'0 0.0
2017-Dec-09 15:00N 54°23' E 018°40'0 0.0
2017-Dec-09 14:27N 54°23' E 018°40'0 0.0
2017-Dec-09 13:57N 54°23' E 018°40'0 0.0
2017-Dec-09 13:30N 54°23' E 018°40'0 0.0
2017-Dec-09 12:57N 54°23' E 018°40'0 0.0
2017-Dec-09 12:18N 54°23' E 018°40'0 0.0
2017-Dec-09 11:54N 54°23' E 018°40'0 0.0
2017-Dec-09 11:18N 54°23' E 018°40'0 0.0
2017-Dec-09 10:57N 54°23' E 018°40'0 0.0
2017-Dec-09 10:30N 54°23' E 018°40'0 0.0
2017-Dec-09 10:00N 54°23' E 018°40'0 0.0
2017-Dec-09 09:30N 54°23' E 018°40'0 0.0
2017-Dec-09 08:54N 54°23' E 018°40'0 0.0
2017-Dec-09 08:30N 54°23' E 018°40'0 0.0
2017-Dec-09 08:00N 54°23' E 018°40'0 0.0
2017-Dec-09 07:27N 54°23' E 018°40'0 0.0
2017-Dec-09 06:45N 54°23' E 018°40'0 0.0
2017-Dec-09 06:30N 54°23' E 018°40'0 0.0
2017-Dec-09 05:57N 54°23' E 018°40'0 0.0
2017-Dec-09 05:30N 54°23' E 018°40'0 0.0
2017-Dec-09 05:00N 54°23' E 018°40'0 0.0
2017-Dec-09 04:27N 54°23' E 018°40'0 0.0
2017-Dec-09 03:57N 54°23' E 018°40'0 0.0
2017-Dec-09 03:27N 54°23' E 018°40'0 0.0
2017-Dec-09 02:57N 54°23' E 018°40'0 0.0
2017-Dec-09 02:30N 54°23' E 018°40'0 0.0
2017-Dec-09 01:57N 54°23' E 018°40'0 0.0
2017-Dec-09 01:27N 54°23' E 018°40'0 0.0
2017-Dec-09 00:57N 54°23' E 018°40'0 0.0
2017-Dec-09 00:30N 54°23' E 018°40'0 0.0
2017-Dec-08 23:51N 54°23' E 018°40'0 0.0
2017-Dec-08 23:21N 54°23' E 018°40'0 0.0
2017-Dec-08 22:57N 54°23' E 018°40'0 0.0
2017-Dec-08 22:21N 54°23' E 018°40'0 0.0
2017-Dec-08 21:57N 54°23' E 018°40'0 0.0
2017-Dec-08 21:27N 54°23' E 018°40'0 0.0
2017-Dec-08 20:57N 54°23' E 018°40'0 0.0
2017-Dec-08 20:27N 54°23' E 018°40'0 0.0
2017-Dec-08 19:39N 54°23' E 018°40'0 0.0
2017-Dec-08 19:21N 54°23' E 018°40'0 0.0
2017-Dec-08 16:45N 54°23' E 018°40'0 0.0
2017-Dec-08 16:27N 54°23' E 018°40'0 0.0
2017-Dec-08 16:00N 54°23' E 018°40'0 0.0
2017-Dec-08 15:27N 54°23' E 018°40'0 0.0
2017-Dec-08 15:00N 54°23' E 018°40'0 0.0
2017-Dec-08 14:27N 54°23' E 018°40'0 0.0
2017-Dec-08 14:00N 54°23' E 018°40'0 0.0
2017-Dec-08 13:30N 54°23' E 018°40'0 0.0
2017-Dec-08 12:51N 54°23' E 018°40'0 0.0
2017-Dec-08 12:30N 54°23' E 018°40'0 0.0
2017-Dec-08 11:57N 54°23' E 018°40'0 0.0
2017-Dec-08 11:30N 54°23' E 018°40'0 0.0
2017-Dec-08 11:00N 54°23' E 018°40'0 0.0
2017-Dec-08 10:30N 54°23' E 018°40'0 0.0
2017-Dec-08 10:00N 54°23' E 018°40'0 0.0
2017-Dec-08 09:30N 54°23' E 018°40'0 0.0
2017-Dec-08 08:57N 54°23' E 018°40'0 0.0
2017-Dec-08 08:30N 54°23' E 018°40'0 0.0
2017-Dec-08 08:00N 54°23' E 018°40'0 0.0
2017-Dec-08 07:30N 54°23' E 018°40'0 0.0
2017-Dec-08 07:00N 54°23' E 018°40'0 0.0
2017-Dec-08 06:30N 54°23' E 018°40'0 0.0
2017-Dec-08 06:00N 54°23' E 018°40'0 0.0
2017-Dec-08 05:30N 54°23' E 018°40'0 0.0
2017-Dec-08 04:54N 54°23' E 018°40'0 0.0
2017-Dec-08 04:27N 54°23' E 018°40'0 0.0
2017-Dec-08 04:00N 54°23' E 018°40'0 0.0
2017-Dec-08 03:30N 54°23' E 018°40'0 0.0
2017-Dec-08 02:57N 54°23' E 018°40'  
Track history (hours):
 
Tides and Currents Weather Stations Pressure Air Temp Water Temp Dewpoint Dewpoint Depression Visibility Wind Speed Wind Dir Waves Ship Positions

Kyrakatingo

Last reported at 2017-Dec-18 02:46 UTC. Time now 2017-Dec-18 03:23 UTC.
Position N 51°22' E 002°40'.

Length 250 m; draft 8.7 m.

Type: Tanker. MMSI: 249997000.

Date/timePositionNaut miles runAvg speedWind from/ knotsBaromVisibWave heightAir tempDewpointWater temp
2017-Dec-18 02:46N 51°22' E 002°40'2 5.4
2017-Dec-18 02:29N 51°22' E 002°38'3 4.2
2017-Dec-18 01:47N 51°21' E 002°34'1 2.1
2017-Dec-18 01:27N 51°20' E 002°34'0 0.1
2017-Dec-18 00:57N 51°20' E 002°34'0 0.0
2017-Dec-18 00:27N 51°20' E 002°34'0 0.1
2017-Dec-18 00:00N 51°20' E 002°34'0 0.0
2017-Dec-17 23:18N 51°20' E 002°34'0 0.0
2017-Dec-17 23:00N 51°20' E 002°34'0 0.0
2017-Dec-17 22:30N 51°20' E 002°34'0 0.0
2017-Dec-17 21:54N 51°20' E 002°34'0 0.2
2017-Dec-17 21:21N 51°20' E 002°34'0 0.3
2017-Dec-17 20:57N 51°20' E 002°33'0 0.1
2017-Dec-17 20:30N 51°20' E 002°33'0 0.0
2017-Dec-17 19:15N 51°20' E 002°33'0 0.0
2017-Dec-17 18:39N 51°20' E 002°33'0 0.0
2017-Dec-17 17:42N 51°20' E 002°33'0 0.1
2017-Dec-17 17:24N 51°20' E 002°33'0 0.1
2017-Dec-17 17:00N 51°20' E 002°33'0 0.1
2017-Dec-17 16:30N 51°20' E 002°34'0 0.0
2017-Dec-17 16:00N 51°20' E 002°34'0 0.0
2017-Dec-17 15:30N 51°20' E 002°34'0 0.0
2017-Dec-17 15:00N 51°20' E 002°34'0 0.0
2017-Dec-17 14:21N 51°20' E 002°34'0 0.0
2017-Dec-17 12:12N 51°20' E 002°34'0 0.0
2017-Dec-17 11:48N 51°20' E 002°34'0 0.1
2017-Dec-17 11:24N 51°20' E 002°34'0 0.1
2017-Dec-17 11:00N 51°20' E 002°34'0 0.1
2017-Dec-17 10:27N 51°20' E 002°34'0 0.1
2017-Dec-17 09:51N 51°20' E 002°34'0 0.6
2017-Dec-17 09:28N 51°20' E 002°33'1 2.2
2017-Dec-17 08:57N 51°21' E 002°33'5 6.4
2017-Dec-17 08:11N 51°21' E 002°25'2 8.8
2017-Dec-17 07:58N 51°20' E 002°23'4 9.4
2017-Dec-17 07:30N 51°19' E 002°16'510.1
2017-Dec-17 07:00N 51°20' E 002°08'5 9.9
2017-Dec-17 06:30N 51°22' E 002°01'4 8.6
2017-Dec-17 06:00N 51°26' E 001°57'510.4
2017-Dec-17 05:31N 51°29' E 002°03'5 9.1
2017-Dec-17 05:01N 51°33' E 002°08'5 9.9
2017-Dec-17 04:31N 51°36' E 002°14'5 9.4
2017-Dec-17 04:00N 51°40' E 002°19'160 9.4
2017-Dec-16 10:58N 54°01' E 004°21'4 8.3
2017-Dec-16 10:29N 54°04' E 004°26'4 8.2
2017-Dec-16 09:59N 54°08' E 004°30'4 8.2
2017-Dec-16 09:29N 54°11' E 004°34'29310.3
2017-Dec-15 04:58N 57°50' E 010°22'611.9
2017-Dec-15 04:26N 57°50' E 010°34'511.4
2017-Dec-15 04:00N 57°50' E 010°44'8 5.6
2017-Dec-15 02:30N 57°41' E 010°42'0 0.0
2017-Dec-15 01:00N 57°41' E 010°42'0 0.0
2017-Dec-15 00:30N 57°41' E 010°42'0 0.0
2017-Dec-14 18:30N 57°42' E 010°42'0 0.0
2017-Dec-14 17:57N 57°42' E 010°42'0 0.0
2017-Dec-14 17:30N 57°41' E 010°42'0 0.0
2017-Dec-14 17:00N 57°42' E 010°42'0 0.1
2017-Dec-14 16:30N 57°42' E 010°42'0 0.1
2017-Dec-14 16:00N 57°41' E 010°42'0 0.1
2017-Dec-14 15:00N 57°41' E 010°42'0 0.0
2017-Dec-14 14:30N 57°41' E 010°42'0 0.0
2017-Dec-14 14:00N 57°41' E 010°42'0 0.1
2017-Dec-14 13:30N 57°41' E 010°42'0 0.1
2017-Dec-14 12:57N 57°41' E 010°42'0 0.0
2017-Dec-14 12:30N 57°41' E 010°42'0 0.1
2017-Dec-14 11:54N 57°42' E 010°42'0 0.0
2017-Dec-14 11:30N 57°42' E 010°42'0 0.1
2017-Dec-14 11:00N 57°42' E 010°42'0 0.0
2017-Dec-14 10:27N 57°42' E 010°42'0 0.0
2017-Dec-14 10:00N 57°42' E 010°42'0 0.0
2017-Dec-14 09:24N 57°42' E 010°42'0 0.0
2017-Dec-14 08:51N 57°42' E 010°42'0 0.0
2017-Dec-14 08:24N 57°42' E 010°42'0 0.0
2017-Dec-14 08:00N 57°42' E 010°42'0 0.0
2017-Dec-14 07:24N 57°42' E 010°42'0 0.0
2017-Dec-14 07:00N 57°42' E 010°42'0 0.0
2017-Dec-14 06:27N 57°42' E 010°42'0 0.0
2017-Dec-14 05:57N 57°42' E 010°42'0 0.0
2017-Dec-14 05:30N 57°42' E 010°42'0 0.0
2017-Dec-14 04:54N 57°42' E 010°42'0 0.0
2017-Dec-14 04:30N 57°42' E 010°42'0 0.0
2017-Dec-14 04:00N 57°42' E 010°42'0 0.0
2017-Dec-14 03:24N 57°42' E 010°42'0 0.0
2017-Dec-14 03:00N 57°42' E 010°42'0 0.1
2017-Dec-14 02:30N 57°42' E 010°42'0 0.0
2017-Dec-14 02:00N 57°42' E 010°42'0 0.1
2017-Dec-14 01:30N 57°42' E 010°42'0 0.0
2017-Dec-14 01:00N 57°42' E 010°42'0 0.1
2017-Dec-14 00:27N 57°42' E 010°42'0 0.0
2017-Dec-13 23:57N 57°42' E 010°42'0 0.1
2017-Dec-13 23:21N 57°42' E 010°42'0 0.0
2017-Dec-13 22:57N 57°42' E 010°42'0 0.1
2017-Dec-13 22:27N 57°42' E 010°42'0 0.1
2017-Dec-13 21:54N 57°42' E 010°42'0 0.0
2017-Dec-13 21:30N 57°42' E 010°42'0 0.1
2017-Dec-13 20:57N 57°42' E 010°42'0 0.1
2017-Dec-13 20:30N 57°42' E 010°42'0 0.1
2017-Dec-13 19:57N 57°42' E 010°42'0 0.1
2017-Dec-13 19:30N 57°42' E 010°42'0 0.0
2017-Dec-13 18:57N 57°42' E 010°42'0 0.0
2017-Dec-13 18:27N 57°42' E 010°42'0 0.1
2017-Dec-13 18:00N 57°42' E 010°42'0 0.1
2017-Dec-13 17:30N 57°42' E 010°42'0 0.1
2017-Dec-13 17:00N 57°42' E 010°42'0 0.1
2017-Dec-13 16:30N 57°42' E 010°42'0 0.0
2017-Dec-13 15:54N 57°42' E 010°43'0 0.2
2017-Dec-13 15:30N 57°42' E 010°42'0 0.0
2017-Dec-13 14:54N 57°42' E 010°42'0 0.2
2017-Dec-13 14:30N 57°42' E 010°43'0 0.0
2017-Dec-13 14:00N 57°42' E 010°43'0 0.1
2017-Dec-13 13:24N 57°42' E 010°42'0 0.1
2017-Dec-13 12:57N 57°42' E 010°43'0 0.2
2017-Dec-13 12:30N 57°42' E 010°42'0 0.0
2017-Dec-13 12:00N 57°42' E 010°42'0 0.0
2017-Dec-13 11:30N 57°42' E 010°42'0 0.0
2017-Dec-13 11:00N 57°42' E 010°42'0 0.1
2017-Dec-13 10:30N 57°42' E 010°42'0 0.1
2017-Dec-13 10:00N 57°41' E 010°43'0 0.0
2017-Dec-13 09:21N 57°41' E 010°42'0 0.1
2017-Dec-13 09:00N 57°41' E 010°42'0 0.1
2017-Dec-13 08:30N 57°41' E 010°43'0 0.1
2017-Dec-13 08:00N 57°41' E 010°42'0 0.1
2017-Dec-13 07:30N 57°41' E 010°42'0 0.0
2017-Dec-13 07:00N 57°41' E 010°42'0 0.1
2017-Dec-13 06:30N 57°41' E 010°43'0 0.0
2017-Dec-13 05:57N 57°41' E 010°43'0 0.0
2017-Dec-13 05:30N 57°41' E 010°43'0 0.0
2017-Dec-13 05:00N 57°41' E 010°43'0 0.1
2017-Dec-13 04:30N 57°41' E 010°43'0 0.0
2017-Dec-13 04:00N 57°41' E 010°43'0 0.0
2017-Dec-13 03:30N 57°41' E 010°43'0 0.0
2017-Dec-13 03:00N 57°41' E 010°43'0 0.0
2017-Dec-13 02:30N 57°41' E 010°43'0 0.0
2017-Dec-13 02:00N 57°41' E 010°43'0 0.0
2017-Dec-13 01:30N 57°41' E 010°43'0 0.1
2017-Dec-13 00:57N 57°41' E 010°43'0 0.1
2017-Dec-13 00:30N 57°41' E 010°43'0 0.0
2017-Dec-12 23:57N 57°41' E 010°43'0 0.0
2017-Dec-12 23:30N 57°41' E 010°43'0 0.0
2017-Dec-12 22:59N 57°41' E 010°43'0 0.1
2017-Dec-12 22:30N 57°41' E 010°43'0 0.0
2017-Dec-12 22:00N 57°41' E 010°43'0 0.0
2017-Dec-12 21:30N 57°41' E 010°43'0 0.0
2017-Dec-12 21:00N 57°41' E 010°43'0 0.0
2017-Dec-12 20:30N 57°41' E 010°43'0 0.1
2017-Dec-12 20:00N 57°41' E 010°43'0 0.0
2017-Dec-12 19:30N 57°41' E 010°43'0 0.0
2017-Dec-12 19:00N 57°41' E 010°43'0 0.1
2017-Dec-12 18:15N 57°41' E 010°43'0 0.1
2017-Dec-12 17:54N 57°41' E 010°43'0 0.0
2017-Dec-12 17:26N 57°41' E 010°43'0 0.1
2017-Dec-12 17:00N 57°41' E 010°43'0 0.1
2017-Dec-12 16:30N 57°41' E 010°43'0 0.0
2017-Dec-12 15:57N 57°41' E 010°43'0 0.0
2017-Dec-12 15:30N 57°41' E 010°43'0 0.0
2017-Dec-12 15:00N 57°41' E 010°43'0 0.0
2017-Dec-12 14:29N 57°41' E 010°43'0 0.1
2017-Dec-12 14:00N 57°41' E 010°42'0 0.0
2017-Dec-12 13:30N 57°41' E 010°42'0 0.0
2017-Dec-12 12:59N 57°41' E 010°42'0 0.1
2017-Dec-12 12:27N 57°41' E 010°42'0 0.1
2017-Dec-12 11:57N 57°41' E 010°42'0 0.1
2017-Dec-12 11:23N 57°41' E 010°42'0 0.2
2017-Dec-12 10:56N 57°41' E 010°42'0 0.2
2017-Dec-12 10:27N 57°41' E 010°42'0 0.0
2017-Dec-12 09:50N 57°41' E 010°42'0 0.0
2017-Dec-12 09:30N 57°41' E 010°42'0 0.1
2017-Dec-12 08:59N 57°41' E 010°42'0 0.1
2017-Dec-12 08:26N 57°41' E 010°42'0 0.0
2017-Dec-12 07:56N 57°41' E 010°42'0 0.1
2017-Dec-12 07:29N 57°41' E 010°42'0 0.1
2017-Dec-12 06:59N 57°41' E 010°42'0 0.1
2017-Dec-12 06:29N 57°41' E 010°42'0 0.1
2017-Dec-12 05:51N 57°41' E 010°42'0 0.1
2017-Dec-12 05:24N 57°41' E 010°42'0 0.1
2017-Dec-12 05:00N 57°41' E 010°42'0 0.1
2017-Dec-12 04:30N 57°41' E 010°42'0 0.6
2017-Dec-12 04:00N 57°41' E 010°42'1 1.1
2017-Dec-12 03:30N 57°41' E 010°43'1 2.7
2017-Dec-12 03:00N 57°41' E 010°45'2 4.6
2017-Dec-12 02:30N 57°40' E 010°49'3 5.6
2017-Dec-12 02:00N 57°40' E 010°54'611.7
2017-Dec-12 01:30N 57°38' E 011°05'612.9
2017-Dec-12 01:00N 57°34' E 011°14'613.1
2017-Dec-12 00:30N 57°30' E 011°23'612.2
2017-Dec-12 00:00N 57°25' E 011°29'612.6
2017-Dec-11 23:30N 57°18' E 011°32'713.0
2017-Dec-11 23:00N 57°12' E 011°36'713.3
2017-Dec-11 22:30N 57°06' E 011°40'713.3
2017-Dec-11 22:00N 56°60' E 011°44'10211.9
2017-Dec-11 13:27N 55°20' E 011°02'613.6
2017-Dec-11 13:00N 55°15' E 011°06'712.9
2017-Dec-11 12:30N 55°08' E 011°03'713.8
2017-Dec-11 12:00N 55°02' E 011°02'713.2
2017-Dec-11 11:30N 54°56' E 010°56'713.3
2017-Dec-11 11:00N 54°50' E 010°52'612.8
2017-Dec-11 10:30N 54°43' E 010°53'612.4
2017-Dec-11 10:00N 54°39' E 011°01'713.8
2017-Dec-11 09:31N 54°36' E 011°11'714.0
2017-Dec-11 09:00N 54°33' E 011°22'714.2
2017-Dec-11 08:30N 54°30' E 011°33'713.8
2017-Dec-11 08:00N 54°27' E 011°44'714.0
2017-Dec-11 07:30N 54°26' E 011°56'713.8
2017-Dec-11 06:59N 54°26' E 012°08'612.8
2017-Dec-11 06:30N 54°31' E 012°13'612.7
2017-Dec-11 06:00N 54°38' E 012°17'8111.5
2017-Dec-10 22:56N 54°39' E 014°37'912.8
2017-Dec-10 22:15N 54°40' E 014°52'312.7
2017-Dec-10 22:00N 54°40' E 014°57'10812.4
2017-Dec-10 13:17N 55°00' E 018°02'311.8
2017-Dec-10 13:00N 55°00' E 018°07'611.7
2017-Dec-10 12:30N 55°00' E 018°18'611.6
2017-Dec-10 12:00N 55°00' E 018°28'611.2
2017-Dec-10 11:30N 54°59' E 018°37'612.8
2017-Dec-10 11:01N 54°54' E 018°45'612.9
2017-Dec-10 10:30N 54°50' E 018°53'612.2
2017-Dec-10 10:01N 54°45' E 019°00'713.0
2017-Dec-10 09:30N 54°39' E 018°57'713.0
2017-Dec-10 09:00N 54°34' E 018°51'612.7
2017-Dec-10 08:30N 54°29' E 018°44'4 8.9
2017-Dec-10 08:00N 54°25' E 018°39'2 3.5
2017-Dec-10 07:30N 54°24' E 018°41'1 2.9
2017-Dec-10 07:00N 54°23' E 018°39'0 0.6
2017-Dec-10 06:30N 54°23' E 018°40'0 0.0
2017-Dec-10 06:00N 54°23' E 018°40'0 0.0
2017-Dec-10 05:30N 54°23' E 018°40'0 0.0
2017-Dec-10 05:00N 54°23' E 018°40'0 0.0
2017-Dec-10 04:30N 54°23' E 018°40'0 0.0
2017-Dec-10 04:00N 54°23' E 018°40'0 0.0
2017-Dec-10 03:30N 54°23' E 018°40'0 0.0
2017-Dec-10 03:00N 54°23' E 018°40'0 0.0
2017-Dec-10 02:30N 54°23' E 018°40'0 0.0
2017-Dec-10 01:57N 54°23' E 018°40'0 0.0
2017-Dec-10 01:30N 54°23' E 018°40'0 0.0
2017-Dec-10 01:00N 54°23' E 018°40'0 0.0
2017-Dec-10 00:30N 54°23' E 018°40'0 0.0
2017-Dec-10 00:00N 54°23' E 018°40'0 0.0
2017-Dec-09 23:30N 54°23' E 018°40'0 0.0
2017-Dec-09 23:00N 54°23' E 018°40'0 0.0
2017-Dec-09 22:30N 54°23' E 018°40'0 0.0
2017-Dec-09 22:00N 54°23' E 018°40'0 0.0
2017-Dec-09 21:30N 54°23' E 018°40'0 0.0
2017-Dec-09 21:00N 54°23' E 018°40'0 0.0
2017-Dec-09 20:30N 54°23' E 018°40'0 0.0
2017-Dec-09 20:00N 54°23' E 018°40'0 0.0
2017-Dec-09 19:30N 54°23' E 018°40'0 0.0
2017-Dec-09 19:00N 54°23' E 018°40'0 0.0
2017-Dec-09 18:27N 54°23' E 018°40'0 0.0
2017-Dec-09 18:00N 54°23' E 018°40'0 0.0
2017-Dec-09 17:27N 54°23' E 018°40'0 0.0
2017-Dec-09 16:57N 54°23' E 018°40'0 0.0
2017-Dec-09 16:27N 54°23' E 018°40'0 0.0
2017-Dec-09 15:51N 54°23' E 018°40'0 0.0
2017-Dec-09 15:27N 54°23' E 018°40'0 0.0
2017-Dec-09 15:00N 54°23' E 018°40'0 0.0
2017-Dec-09 14:27N 54°23' E 018°40'0 0.0
2017-Dec-09 13:57N 54°23' E 018°40'0 0.0
2017-Dec-09 13:30N 54°23' E 018°40'0 0.0
2017-Dec-09 12:57N 54°23' E 018°40'0 0.0
2017-Dec-09 12:18N 54°23' E 018°40'0 0.0
2017-Dec-09 11:54N 54°23' E 018°40'0 0.0
2017-Dec-09 11:18N 54°23' E 018°40'0 0.0
2017-Dec-09 10:57N 54°23' E 018°40'0 0.0
2017-Dec-09 10:30N 54°23' E 018°40'0 0.0
2017-Dec-09 10:00N 54°23' E 018°40'0 0.0
2017-Dec-09 09:30N 54°23' E 018°40'0 0.0
2017-Dec-09 08:54N 54°23' E 018°40'0 0.0
2017-Dec-09 08:30N 54°23' E 018°40'0 0.0
2017-Dec-09 08:00N 54°23' E 018°40'0 0.0
2017-Dec-09 07:27N 54°23' E 018°40'0 0.0
2017-Dec-09 06:45N 54°23' E 018°40'0 0.0
2017-Dec-09 06:30N 54°23' E 018°40'0 0.0
2017-Dec-09 05:57N 54°23' E 018°40'0 0.0
2017-Dec-09 05:30N 54°23' E 018°40'0 0.0
2017-Dec-09 05:00N 54°23' E 018°40'0 0.0
2017-Dec-09 04:27N 54°23' E 018°40'0 0.0
2017-Dec-09 03:57N 54°23' E 018°40'0 0.0
2017-Dec-09 03:27N 54°23' E 018°40'0 0.0
2017-Dec-09 02:57N 54°23' E 018°40'0 0.0
2017-Dec-09 02:30N 54°23' E 018°40'0 0.0
2017-Dec-09 01:57N 54°23' E 018°40'0 0.0
2017-Dec-09 01:27N 54°23' E 018°40'0 0.0
2017-Dec-09 00:57N 54°23' E 018°40'0 0.0
2017-Dec-09 00:30N 54°23' E 018°40'0 0.0
2017-Dec-08 23:51N 54°23' E 018°40'0 0.0
2017-Dec-08 23:21N 54°23' E 018°40'0 0.0
2017-Dec-08 22:57N 54°23' E 018°40'0 0.0
2017-Dec-08 22:21N 54°23' E 018°40'0 0.0
2017-Dec-08 21:57N 54°23' E 018°40'0 0.0
2017-Dec-08 21:27N 54°23' E 018°40'0 0.0
2017-Dec-08 20:57N 54°23' E 018°40'0 0.0
2017-Dec-08 20:27N 54°23' E 018°40'0 0.0
2017-Dec-08 19:39N 54°23' E 018°40'0 0.0
2017-Dec-08 19:21N 54°23' E 018°40'0 0.0
2017-Dec-08 16:45N 54°23' E 018°40'0 0.0
2017-Dec-08 16:27N 54°23' E 018°40'0 0.0
2017-Dec-08 16:00N 54°23' E 018°40'0 0.0
2017-Dec-08 15:27N 54°23' E 018°40'0 0.0
2017-Dec-08 15:00N 54°23' E 018°40'0 0.0
2017-Dec-08 14:27N 54°23' E 018°40'0 0.0
2017-Dec-08 14:00N 54°23' E 018°40'0 0.0
2017-Dec-08 13:30N 54°23' E 018°40'0 0.0
2017-Dec-08 12:51N 54°23' E 018°40'0 0.0
2017-Dec-08 12:30N 54°23' E 018°40'0 0.0
2017-Dec-08 11:57N 54°23' E 018°40'0 0.0
2017-Dec-08 11:30N 54°23' E 018°40'0 0.0
2017-Dec-08 11:00N 54°23' E 018°40'0 0.0
2017-Dec-08 10:30N 54°23' E 018°40'0 0.0
2017-Dec-08 10:00N 54°23' E 018°40'0 0.0
2017-Dec-08 09:30N 54°23' E 018°40'0 0.0
2017-Dec-08 08:57N 54°23' E 018°40'0 0.0
2017-Dec-08 08:30N 54°23' E 018°40'0 0.0
2017-Dec-08 08:00N 54°23' E 018°40'0 0.0
2017-Dec-08 07:30N 54°23' E 018°40'0 0.0
2017-Dec-08 07:00N 54°23' E 018°40'0 0.0
2017-Dec-08 06:30N 54°23' E 018°40'0 0.0
2017-Dec-08 06:00N 54°23' E 018°40'0 0.0
2017-Dec-08 05:30N 54°23' E 018°40'0 0.0
2017-Dec-08 04:54N 54°23' E 018°40'0 0.0
2017-Dec-08 04:27N 54°23' E 018°40'0 0.0
2017-Dec-08 04:00N 54°23' E 018°40'0 0.0
2017-Dec-08 03:30N 54°23' E 018°40'0 0.0
2017-Dec-08 02:57N 54°23' E 018°40'  

Dump ship's entire track history